Time;durP1;ratioP1;P1;durP2;ratioP2;P2;SDS_P1;SDS_P2;PMS_P1;PMS_P2;Temp;Humidity;BMP_temperature;BMP_pressure;BME280_temperature;BME280_humidity;BME280_pressure;Samples;Min_cycle;Max_cycle;Signal;HPM_P1;HPM_P2
2022/11/01 00:01:51;;;;;;;17.55;2.72;;;12.80;99.90;;;;;;5099993;28;20020;-47
2022/11/01 00:04:18;;;;;;;17.75;2.83;;;12.80;99.90;;;;;;5111403;28;20084;-56
2022/11/01 00:06:44;;;;;;;14.88;2.30;;;12.90;99.90;;;;;;5112169;28;20019;-53
2022/11/01 00:09:09;;;;;;;7.97;1.52;;;12.90;99.90;;;;;;5121649;27;20039;-50
2022/11/01 00:11:35;;;;;;;13.95;1.80;;;12.80;99.90;;;;;;5132756;27;20031;-51
2022/11/01 00:14:01;;;;;;;20.80;2.40;;;12.60;99.90;;;;;;5132411;27;20030;-54
2022/11/01 00:16:27;;;;;;;14.45;1.88;;;12.50;99.90;;;;;;5132597;27;20027;-49
2022/11/01 00:18:52;;;;;;;13.40;2.90;;;12.40;99.90;;;;;;5124546;27;20103;-54
2022/11/01 00:21:18;;;;;;;15.32;2.20;;;13.00;99.90;;;;;;5131237;27;20387;-47
2022/11/01 00:23:44;;;;;;;11.75;1.98;;;12.20;99.90;;;;;;5132524;27;20377;-51
2022/11/01 00:26:18;;;;;;;15.30;2.03;;;12.10;99.90;;;;;;5132106;27;20045;-47
2022/11/01 00:28:44;;;;;;;13.60;2.08;;;12.10;99.90;;;;;;5125732;27;20011;-52
2022/11/01 00:31:12;;;;;;;14.85;2.13;;;12.00;99.90;;;;;;5128365;27;20044;-51
2022/11/01 00:33:38;;;;;;;21.83;3.50;;;12.00;99.90;;;;;;5132199;27;20031;-49
2022/11/01 00:36:04;;;;;;;27.25;2.92;;;12.80;99.90;;;;;;5132032;27;20066;-48
2022/11/01 00:38:30;;;;;;;25.83;3.85;;;12.00;99.90;;;;;;5127626;27;20031;-50
2022/11/01 00:40:56;;;;;;;24.13;3.80;;;12.00;99.90;;;;;;5116812;27;20027;-51
2022/11/01 00:43:22;;;;;;;28.98;3.80;;;12.00;99.90;;;;;;5124037;27;20081;-53
2022/11/01 00:45:48;;;;;;;26.15;3.65;;;12.20;99.90;;;;;;5132164;27;20031;-51
2022/11/01 00:48:14;;;;;;;26.75;4.00;;;11.80;99.90;;;;;;5130028;27;20023;-49
2022/11/01 00:50:40;;;;;;;28.05;3.55;;;12.00;99.90;;;;;;5120471;27;20031;-50
2022/11/01 00:53:07;;;;;;;20.52;2.65;;;11.80;99.90;;;;;;5131592;27;20064;-51
2022/11/01 00:55:33;;;;;;;18.83;2.40;;;11.90;99.90;;;;;;5132234;27;20160;-51
2022/11/01 00:57:59;;;;;;;23.88;2.95;;;12.00;99.90;;;;;;5132201;28;20118;-49
2022/11/01 01:00:24;;;;;;;23.55;4.13;;;12.20;99.90;;;;;;5116766;28;20144;-46
2022/11/01 01:02:50;;;;;;;20.50;3.40;;;12.00;99.90;;;;;;5131809;28;20030;-48
2022/11/01 01:05:16;;;;;;;30.60;5.70;;;12.00;99.90;;;;;;5131802;28;20039;-52
2022/11/01 01:07:41;;;;;;;29.10;3.65;;;10.40;99.90;;;;;;5131340;28;20039;-46
2022/11/01 01:10:07;;;;;;;23.98;2.63;;;12.10;99.90;;;;;;5126048;28;20106;-46
2022/11/01 01:12:33;;;;;;;26.40;3.65;;;12.10;99.90;;;;;;5131782;28;20027;-46
2022/11/01 01:14:59;;;;;;;21.75;2.85;;;12.10;99.90;;;;;;5122456;28;20028;-49
2022/11/01 01:17:25;;;;;;;22.27;3.47;;;12.10;99.90;;;;;;5126533;27;20076;-46
2022/11/01 01:19:50;;;;;;;27.48;4.15;;;12.00;99.90;;;;;;5117539;28;20077;-46
2022/11/01 01:22:16;;;;;;;25.05;3.78;;;12.00;99.90;;;;;;5114092;28;20432;-46
2022/11/01 01:24:44;;;;;;;33.83;4.05;;;11.90;99.90;;;;;;5130566;28;20023;-46
2022/11/01 01:27:14;;;;;;;31.45;4.18;;;11.90;99.90;;;;;;5114052;28;20024;-53
2022/11/01 01:29:40;;;;;;;20.63;3.88;;;11.90;99.90;;;;;;5122142;28;20030;-48
2022/11/01 01:32:17;;;;;;;36.03;3.50;;;12.00;99.90;;;;;;5131609;27;20035;-49
2022/11/01 01:34:43;;;;;;;33.60;3.58;;;12.10;99.90;;;;;;5131264;27;20479;-52
2022/11/01 01:37:09;;;;;;;26.27;4.25;;;11.70;99.90;;;;;;5131686;27;20026;-52
2022/11/01 01:39:35;;;;;;;22.52;3.08;;;11.20;99.90;;;;;;5120365;28;20395;-52
2022/11/01 01:53:13;;;;;;;33.10;4.80;;;11.40;99.90;;;;;;5107575;27;20183;-46
2022/11/01 01:55:46;;;;;;;36.42;4.55;;;11.80;99.90;;;;;;5083563;28;20032;-49
2022/11/01 01:58:14;;;;;;;33.63;4.75;;;11.80;99.90;;;;;;5088140;28;20048;-53
2022/11/01 02:00:42;;;;;;;41.58;5.55;;;11.70;99.90;;;;;;5089349;28;20036;-49
2022/11/01 02:19:41;;;;;;;31.30;4.55;;;11.70;99.90;;;;;;5128885;27;20970;-53
2022/11/01 02:22:35;;;;;;;27.45;4.18;;;14.50;99.90;;;;;;5128948;28;20068;-48
2022/11/01 02:25:24;;;;;;;33.72;4.07;;;12.10;99.90;;;;;;5128819;28;20110;-54
2022/11/01 02:27:52;;;;;;;31.45;5.00;;;12.30;99.90;;;;;;5128575;28;20031;-52
2022/11/01 02:30:19;;;;;;;33.38;5.07;;;12.80;99.90;;;;;;5124988;28;20024;-55
2022/11/01 02:33:00;;;;;;;31.40;4.43;;;12.50;99.90;;;;;;5128751;27;20106;-54
2022/11/01 02:35:40;;;;;;;22.00;4.07;;;12.60;99.90;;;;;;5128098;27;20012;-47
2022/11/01 02:38:13;;;;;;;35.28;4.00;;;13.00;99.90;;;;;;5128424;27;20553;-53
2022/11/01 02:40:54;;;;;;;22.48;3.88;;;12.70;99.90;;;;;;5114944;28;20027;-49
2022/11/01 02:43:34;;;;;;;24.08;3.78;;;12.70;99.90;;;;;;5115688;28;20430;-49
2022/11/01 02:46:59;;;;;;;21.00;3.33;;;12.70;99.90;;;;;;5095584;28;20066;-48
2022/11/01 02:48:48;;;;;;;24.05;2.92;;;11.90;99.90;;;;;;5089876;28;20032;-47
2022/11/01 02:51:18;;;;;;;15.30;2.75;;;12.40;99.90;;;;;;5101108;28;20077;-47
2022/11/01 02:53:44;;;;;;;17.75;2.70;;;12.20;99.90;;;;;;5107517;28;20024;-47
2022/11/01 02:56:10;;;;;;;16.48;2.60;;;12.00;99.90;;;;;;5107565;28;20102;-47
2022/11/01 02:58:36;;;;;;;25.60;3.47;;;10.30;99.90;;;;;;5107195;28;20043;-55
2022/11/01 03:01:14;;;;;;;19.33;3.45;;;12.10;99.90;;;;;;5107571;28;20031;-55
2022/11/01 03:03:42;;;;;;;23.95;3.75;;;12.00;99.90;;;;;;5107288;28;20016;-48
2022/11/01 03:06:22;;;;;;;31.85;3.70;;;10.60;99.90;;;;;;5107483;28;20032;-51
2022/11/01 03:08:58;;;;;;;18.42;2.97;;;12.00;99.90;;;;;;5107249;28;20053;-50
2022/11/01 03:11:32;;;;;;;29.30;3.35;;;12.00;99.90;;;;;;5107722;28;20074;-49
2022/11/01 03:14:27;;;;;;;26.00;4.38;;;12.30;99.90;;;;;;5107135;28;20027;-49
2022/11/01 03:17:05;;;;;;;23.42;3.97;;;12.30;99.90;;;;;;5077295;28;20100;-49
2022/11/01 03:19:38;;;;;;;19.13;3.35;;;12.30;99.90;;;;;;5105763;28;20051;-50
2022/11/01 03:22:27;;;;;;;20.02;3.05;;;12.40;99.90;;;;;;5095791;28;20024;-48
2022/11/01 03:25:40;;;;;;;18.07;2.67;;;12.30;99.90;;;;;;5105548;28;20036;-52
2022/11/01 03:28:06;;;;;;;24.00;3.30;;;12.70;99.90;;;;;;5107941;28;20114;-47
2022/11/01 03:30:33;;;;;;;14.57;2.15;;;13.10;99.90;;;;;;5107928;28;20440;-48
2022/11/01 03:32:59;;;;;;;17.13;3.25;;;12.60;99.90;;;;;;5114023;27;20027;-51
2022/11/01 03:35:28;;;;;;;22.70;3.20;;;12.40;99.90;;;;;;5113579;28;20464;-48
2022/11/01 03:38:01;;;;;;;12.20;2.45;;;12.10;99.90;;;;;;5110098;27;20034;-49
2022/11/01 03:40:29;;;;;;;18.13;3.72;;;12.70;99.90;;;;;;5105209;28;20414;-47
2022/11/01 03:43:01;;;;;;;12.70;2.28;;;12.70;99.90;;;;;;5113070;28;20035;-51
2022/11/01 03:45:31;;;;;;;22.27;3.42;;;12.70;99.90;;;;;;5100130;28;20059;-49
2022/11/01 03:47:56;;;;;;;;;;;12.70;99.90;;;;;;5111474;28;20444;-48
2022/11/01 03:50:25;;;;;;;15.00;2.45;;;12.80;99.90;;;;;;5113408;28;19904;-49
2022/11/01 03:52:50;;;;;;;11.38;2.30;;;12.80;99.90;;;;;;5113263;27;20343;-48
2022/11/01 03:55:18;;;;;;;24.13;2.40;;;12.80;99.90;;;;;;5107250;28;20028;-55
2022/11/01 03:57:50;;;;;;;11.00;2.58;;;12.80;99.90;;;;;;5101204;28;20089;-48
2022/11/01 04:00:20;;;;;;;14.10;2.20;;;12.90;99.90;;;;;;5101336;28;20032;-49
2022/11/01 04:02:46;;;;;;;14.73;2.42;;;14.60;99.90;;;;;;5113206;28;20031;-47
2022/11/01 04:05:12;;;;;;;16.27;3.22;;;12.90;99.90;;;;;;5108171;28;20030;-53
2022/11/01 04:07:39;;;;;;;25.25;3.28;;;13.00;99.90;;;;;;5113045;28;20387;-48
2022/11/01 04:10:05;;;;;;;14.43;2.97;;;13.00;99.90;;;;;;5112859;28;20543;-50
2022/11/01 04:12:31;;;;;;;17.70;3.10;;;13.00;99.90;;;;;;5111650;28;20024;-53
2022/11/01 04:20:32;;;;;;;14.70;2.28;;;13.00;99.90;;;;;;5113116;28;20383;-51
2022/11/01 04:23:05;;;;;;;24.35;3.13;;;13.00;99.90;;;;;;5095287;28;20031;-54
2022/11/01 04:25:32;;;;;;;20.70;2.90;;;12.40;99.90;;;;;;5099710;28;20490;-52
2022/11/01 04:27:58;;;;;;;15.40;3.55;;;13.00;99.90;;;;;;5099643;28;20552;-54
2022/11/01 04:30:28;;;;;;;20.33;3.63;;;13.00;99.90;;;;;;5111925;28;20027;-54
2022/11/01 04:32:54;;;;;;;23.25;3.78;;;13.10;99.90;;;;;;5111198;28;20122;-50
2022/11/01 04:35:21;;;;;;;17.85;3.88;;;13.10;99.90;;;;;;5100997;28;20437;-47
2022/11/01 04:37:46;;;;;;;16.15;3.03;;;13.20;99.90;;;;;;5099479;28;20463;-52
2022/11/01 04:40:13;;;;;;;23.20;2.83;;;13.40;99.90;;;;;;5112459;28;20047;-55
2022/11/01 04:42:39;;;;;;;22.27;3.50;;;13.40;99.90;;;;;;5112218;28;20046;-53
2022/11/01 04:45:07;;;;;;;22.45;3.67;;;13.50;99.90;;;;;;5103944;28;20070;-50
2022/11/01 04:47:33;;;;;;;19.92;3.28;;;13.50;99.90;;;;;;5106851;28;20035;-55
2022/11/01 04:49:59;;;;;;;24.70;3.88;;;13.60;99.90;;;;;;5112391;28;20035;-50
2022/11/01 04:52:25;;;;;;;31.05;4.60;;;12.40;99.90;;;;;;5111001;28;20031;-51
2022/11/01 04:54:51;;;;;;;19.90;3.22;;;13.70;99.90;;;;;;5110105;28;20491;-48
2022/11/01 04:57:23;;;;;;;20.75;3.63;;;13.90;99.90;;;;;;5111138;28;20449;-54
2022/11/01 04:59:50;;;;;;;29.17;4.32;;;13.80;99.90;;;;;;5111951;28;20027;-47
2022/11/01 05:02:16;;;;;;;22.10;3.67;;;13.70;99.90;;;;;;5106941;28;20030;-50
2022/11/01 05:04:41;;;;;;;27.27;3.60;;;13.50;99.90;;;;;;5107550;28;20479;-48
2022/11/01 05:07:07;;;;;;;23.33;3.17;;;13.50;99.90;;;;;;5110791;28;20024;-51
2022/11/01 05:09:32;;;;;;;19.85;3.65;;;13.40;99.90;;;;;;5111894;28;20027;-50
2022/11/01 05:11:58;;;;;;;29.08;3.88;;;13.40;99.90;;;;;;5110400;28;20173;-52
2022/11/01 05:14:24;;;;;;;20.70;3.10;;;13.40;99.90;;;;;;5098373;28;20027;-49
2022/11/01 05:16:49;;;;;;;17.85;3.20;;;13.40;99.90;;;;;;5085172;28;20384;-50
2022/11/01 05:19:15;;;;;;;28.48;4.22;;;13.40;99.90;;;;;;5107327;28;20097;-52
2022/11/01 05:21:41;;;;;;;21.98;3.38;;;13.50;99.90;;;;;;5090219;28;20468;-47
2022/11/01 05:24:07;;;;;;;27.00;4.50;;;14.20;99.90;;;;;;5090376;28;20049;-47
2022/11/01 05:26:33;;;;;;;28.63;4.03;;;13.50;99.90;;;;;;5088162;28;20028;-51
2022/11/01 05:28:58;;;;;;;26.52;4.00;;;13.50;99.90;;;;;;5090738;28;20040;-51
2022/11/01 05:31:24;;;;;;;30.20;4.15;;;13.50;99.90;;;;;;5090992;28;20031;-53
2022/11/01 05:33:50;;;;;;;26.92;4.97;;;13.50;99.90;;;;;;5090563;28;20028;-48
2022/11/01 05:36:15;;;;;;;30.67;4.90;;;13.60;99.90;;;;;;5089981;28;20021;-48
2022/11/01 05:38:41;;;;;;;17.23;3.00;;;14.30;99.90;;;;;;5090922;28;20026;-51
2022/11/01 05:41:07;;;;;;;26.33;4.32;;;13.60;99.90;;;;;;5090877;28;20055;-54
2022/11/01 05:43:32;;;;;;;24.88;3.70;;;13.30;99.90;;;;;;5090655;28;20065;-51
2022/11/01 05:46:01;;;;;;;20.70;3.30;;;13.80;99.90;;;;;;5090719;28;20040;-52
2022/11/01 05:48:27;;;;;;;26.88;3.83;;;15.50;99.90;;;;;;5090248;28;20051;-52
2022/11/01 05:50:52;;;;;;;19.02;3.83;;;13.80;99.90;;;;;;5090115;28;20408;-51
2022/11/01 05:53:18;;;;;;;21.13;4.07;;;13.80;99.90;;;;;;5081821;28;20028;-54
2022/11/01 05:55:44;;;;;;;16.20;2.90;;;13.80;99.90;;;;;;5088287;28;20028;-49
2022/11/01 05:58:09;;;;;;;26.27;2.95;;;13.80;99.90;;;;;;5079534;28;20033;-48
2022/11/01 06:00:35;;;;;;;21.90;3.95;;;13.80;99.90;;;;;;5068953;28;20056;-50
2022/11/01 06:03:01;;;;;;;29.27;3.67;;;13.80;99.90;;;;;;5079275;28;20032;-55
2022/11/01 06:05:27;;;;;;;24.27;3.10;;;13.80;99.90;;;;;;5089778;28;20024;-51
2022/11/01 06:07:53;;;;;;;29.55;3.30;;;13.90;99.90;;;;;;5090274;28;20093;-51
2022/11/01 06:10:18;;;;;;;21.85;3.25;;;13.90;99.90;;;;;;5090670;28;20024;-51
2022/11/01 06:12:44;;;;;;;25.58;3.55;;;14.00;99.90;;;;;;5090386;28;20059;-51
2022/11/01 06:15:10;;;;;;;23.17;3.00;;;14.00;99.90;;;;;;5089165;28;20103;-50
2022/11/01 06:17:35;;;;;;;26.20;3.25;;;14.10;99.90;;;;;;5094538;28;20032;-48
2022/11/01 06:20:01;;;;;;;31.83;4.57;;;14.20;99.90;;;;;;5108771;28;20434;-48
2022/11/01 06:22:27;;;;;;;35.35;5.13;;;14.20;99.90;;;;;;5106418;28;20106;-48
2022/11/01 06:24:53;;;;;;;26.25;4.88;;;14.30;99.90;;;;;;5099258;28;20118;-51
2022/11/01 06:27:18;;;;;;;16.40;3.15;;;14.30;99.90;;;;;;5109252;28;20035;-48
2022/11/01 06:29:44;;;;;;;21.58;3.00;;;14.30;99.90;;;;;;5110275;28;20129;-50
2022/11/01 06:32:10;;;;;;;23.92;3.33;;;14.30;99.90;;;;;;5111065;28;20020;-48
2022/11/01 06:34:35;;;;;;;22.08;3.05;;;14.90;99.90;;;;;;5092821;28;20414;-49
2022/11/01 06:37:01;;;;;;;22.15;3.50;;;14.30;99.90;;;;;;5102260;28;20019;-49
2022/11/01 06:39:27;;;;;;;22.48;4.82;;;13.10;99.90;;;;;;5102817;28;20383;-49
2022/11/01 06:41:52;;;;;;;18.58;2.97;;;14.30;99.90;;;;;;5090813;28;20027;-51
2022/11/01 06:44:18;;;;;;;21.90;2.95;;;14.30;99.90;;;;;;5085444;28;20487;-49
2022/11/01 06:46:44;;;;;;;18.73;3.45;;;14.40;99.90;;;;;;5089850;28;20035;-53
2022/11/01 06:49:10;;;;;;;26.52;2.95;;;14.30;99.90;;;;;;5090051;28;20025;-46
2022/11/01 06:51:36;;;;;;;20.50;3.72;;;14.40;99.90;;;;;;5089991;28;20469;-52
2022/11/01 06:54:01;;;;;;;23.48;3.80;;;14.50;99.90;;;;;;5090433;28;20069;-48
2022/11/01 06:56:27;;;;;;;25.15;3.13;;;14.50;99.90;;;;;;5093783;28;20035;-46
2022/11/01 06:58:52;;;;;;;25.08;3.53;;;14.50;99.90;;;;;;5093844;28;20046;-51
2022/11/01 07:01:20;;;;;;;18.30;3.10;;;14.50;99.90;;;;;;5093510;28;20024;-56
2022/11/01 07:03:49;;;;;;;25.80;3.97;;;13.00;99.90;;;;;;5088988;28;20036;-51
2022/11/01 07:06:15;;;;;;;21.20;3.45;;;15.30;99.90;;;;;;5086600;28;20028;-52
2022/11/01 07:08:41;;;;;;;21.27;2.92;;;14.50;99.90;;;;;;5090842;28;20043;-49
2022/11/01 07:11:06;;;;;;;23.88;3.30;;;14.40;99.90;;;;;;5092223;28;20380;-52
2022/11/01 07:13:33;;;;;;;18.27;3.10;;;14.00;99.90;;;;;;5089391;28;20115;-52
2022/11/01 07:16:06;;;;;;;22.40;3.20;;;14.20;99.90;;;;;;5092429;28;20033;-50
2022/11/01 07:18:31;;;;;;;24.45;3.38;;;14.10;99.90;;;;;;5093051;28;20062;-54
2022/11/01 07:21:01;;;;;;;14.05;3.15;;;14.00;99.90;;;;;;5092914;28;20464;-54
2022/11/01 07:23:28;;;;;;;23.80;3.40;;;13.90;99.90;;;;;;5092404;28;20115;-47
2022/11/01 07:25:53;;;;;;;20.40;3.15;;;13.90;99.90;;;;;;5092502;28;20097;-47
2022/11/01 07:28:19;;;;;;;26.23;3.38;;;13.90;99.90;;;;;;5092677;28;20039;-50
2022/11/01 07:30:52;;;;;;;26.60;3.30;;;13.90;99.90;;;;;;5092402;28;20024;-49
2022/11/01 07:33:18;;;;;;;20.08;3.40;;;14.00;99.90;;;;;;5090789;28;20046;-52
2022/11/01 07:35:45;;;;;;;17.33;3.00;;;14.00;99.90;;;;;;5092513;28;20099;-48
2022/11/01 07:38:11;;;;;;;21.35;3.75;;;14.10;99.90;;;;;;5092806;28;20141;-51
2022/11/01 07:40:37;;;;;;;18.48;3.58;;;14.10;99.90;;;;;;5092059;28;20492;-47
2022/11/01 07:43:04;;;;;;;15.40;2.75;;;14.20;99.90;;;;;;5091258;28;20035;-54
2022/11/01 07:45:32;;;;;;;23.27;3.40;;;14.50;99.90;;;;;;5092013;28;20125;-51
2022/11/01 07:48:03;;;;;;;22.20;3.80;;;14.30;99.90;;;;;;5092395;28;20236;-53
2022/11/01 07:50:30;;;;;;;21.17;4.40;;;14.40;99.90;;;;;;5092558;28;20043;-50
2022/11/01 07:53:03;;;;;;;23.77;3.45;;;14.50;99.90;;;;;;5091509;28;20104;-48
2022/11/01 07:55:28;;;;;;;23.10;3.10;;;14.50;99.90;;;;;;5089905;28;20489;-51
2022/11/01 07:57:54;;;;;;;26.45;4.05;;;14.50;99.90;;;;;;5091100;28;20043;-53
2022/11/01 08:00:20;;;;;;;28.70;3.20;;;14.60;99.90;;;;;;5092494;28;20071;-54
2022/11/01 08:02:46;;;;;;;17.10;2.63;;;14.60;99.90;;;;;;5092750;28;20028;-54
2022/11/01 08:05:11;;;;;;;22.77;3.60;;;14.60;99.90;;;;;;5092593;28;20020;-52
2022/11/01 08:07:39;;;;;;;22.35;2.97;;;14.70;99.90;;;;;;5092421;28;20032;-48
2022/11/01 08:10:07;;;;;;;20.40;3.45;;;14.50;99.90;;;;;;5092246;28;20058;-52
2022/11/01 08:12:33;;;;;;;19.73;2.63;;;14.70;99.90;;;;;;5092003;28;20032;-51
2022/11/01 08:15:00;;;;;;;21.35;3.20;;;14.70;99.90;;;;;;5090979;28;20024;-53
2022/11/01 08:17:25;;;;;;;22.40;2.55;;;15.80;99.90;;;;;;5097135;28;20112;-50
2022/11/01 08:19:51;;;;;;;20.33;3.95;;;14.70;99.90;;;;;;5112813;28;20425;-50
2022/11/01 08:22:16;;;;;;;20.02;3.15;;;14.70;99.90;;;;;;5103785;28;20020;-51
2022/11/01 08:24:42;;;;;;;26.20;3.58;;;14.80;99.90;;;;;;5111786;28;20027;-56
2022/11/01 08:27:08;;;;;;;18.65;2.92;;;14.80;99.90;;;;;;5099455;28;20026;-52
2022/11/01 08:29:33;;;;;;;19.77;3.95;;;14.80;99.90;;;;;;5091268;28;20028;-57
2022/11/01 08:31:59;;;;;;;18.50;2.85;;;14.80;99.90;;;;;;5089226;28;20020;-54
2022/11/01 08:34:24;;;;;;;14.20;2.90;;;15.50;99.90;;;;;;5091545;28;20047;-53
2022/11/01 08:36:50;;;;;;;15.18;2.67;;;14.80;99.90;;;;;;5092351;28;20101;-52
2022/11/01 08:39:16;;;;;;;19.65;2.63;;;14.90;99.90;;;;;;5082004;28;20025;-51
2022/11/01 08:41:41;;;;;;;15.18;2.30;;;14.90;99.90;;;;;;5087118;28;20475;-47
2022/11/01 08:44:07;;;;;;;20.35;2.80;;;14.80;99.90;;;;;;5091911;28;20031;-47
2022/11/01 08:46:32;;;;;;;21.15;2.33;;;14.90;99.90;;;;;;5091954;28;20077;-54
2022/11/01 08:48:59;;;;;;;20.30;2.92;;;16.70;99.90;;;;;;5091574;28;20038;-51
2022/11/01 08:51:26;;;;;;;18.90;2.28;;;13.00;99.90;;;;;;5088543;28;20028;-50
2022/11/01 08:53:56;;;;;;;16.35;3.03;;;13.50;99.90;;;;;;5089948;28;20081;-46
2022/11/01 08:56:26;;;;;;;16.58;2.50;;;15.20;99.90;;;;;;5089780;28;20051;-49
2022/11/01 08:58:52;;;;;;;26.70;3.15;;;15.60;99.90;;;;;;5089718;28;20067;-50
2022/11/01 09:01:18;;;;;;;23.42;3.60;;;15.70;99.90;;;;;;5091347;28;20028;-47
2022/11/01 09:03:47;;;;;;;24.08;3.25;;;15.50;99.90;;;;;;5091522;28;20073;-49
2022/11/01 09:06:13;;;;;;;21.63;4.77;;;15.30;99.90;;;;;;5091353;28;20024;-49
2022/11/01 09:08:39;;;;;;;22.90;2.83;;;12.80;99.90;;;;;;5090916;28;20284;-50
2022/11/01 09:11:05;;;;;;;24.05;3.25;;;14.70;99.90;;;;;;5091140;28;20381;-51
2022/11/01 09:13:31;;;;;;;20.40;3.47;;;14.60;99.90;;;;;;5083520;28;20458;-50
2022/11/01 09:15:57;;;;;;;22.98;3.85;;;14.50;99.90;;;;;;5089190;28;20044;-48
2022/11/01 09:18:23;;;;;;;19.48;3.20;;;15.90;99.90;;;;;;5088982;28;20098;-48
2022/11/01 09:20:55;;;;;;;22.55;3.63;;;14.40;99.90;;;;;;5091197;28;20113;-51
2022/11/01 09:23:21;;;;;;;15.98;2.85;;;14.40;99.90;;;;;;5090690;28;20032;-52
2022/11/01 09:25:47;;;;;;;25.90;3.38;;;14.60;99.90;;;;;;5090640;28;20020;-50
2022/11/01 09:28:13;;;;;;;23.73;4.45;;;15.00;99.90;;;;;;5090564;28;20614;-55
2022/11/01 09:30:39;;;;;;;21.05;4.20;;;14.60;99.90;;;;;;5090469;28;20431;-48
2022/11/01 09:33:05;;;;;;;25.88;3.83;;;14.70;99.90;;;;;;5091193;28;20024;-56
2022/11/01 09:35:32;;;;;;;19.85;2.65;;;14.70;99.90;;;;;;5090710;28;20023;-50
2022/11/01 09:37:58;;;;;;;27.85;4.35;;;14.60;99.90;;;;;;5090884;28;20060;-50
2022/11/01 09:40:39;;;;;;;23.92;3.10;;;16.20;99.90;;;;;;5090783;28;20104;-57
2022/11/01 09:43:08;;;;;;;28.77;3.83;;;14.60;99.90;;;;;;5090801;28;20032;-47
2022/11/01 09:45:35;;;;;;;22.50;3.25;;;14.60;99.90;;;;;;5090817;28;20021;-50
2022/11/01 09:48:02;;;;;;;22.92;3.05;;;14.60;99.90;;;;;;5090456;28;20438;-47
2022/11/01 09:50:33;;;;;;;20.15;3.30;;;14.70;99.90;;;;;;5090649;28;20017;-48
2022/11/01 09:53:02;;;;;;;19.77;3.20;;;14.70;99.90;;;;;;5090519;28;20024;-54
2022/11/01 09:55:53;;;;;;;21.73;3.53;;;16.10;99.90;;;;;;5090335;28;20021;-56
2022/11/01 09:58:39;;;;;;;17.20;2.83;;;15.00;99.90;;;;;;5090235;28;20039;-51
2022/11/01 10:01:14;;;;;;;17.80;2.72;;;15.30;99.90;;;;;;5090292;28;20047;-48
2022/11/01 10:04:08;;;;;;;17.38;2.97;;;16.00;99.90;;;;;;5090591;28;20453;-51
2022/11/01 10:06:42;;;;;;;18.15;2.78;;;15.50;99.90;;;;;;5080544;28;20016;-52
2022/11/01 10:09:32;;;;;;;16.25;2.70;;;16.10;99.90;;;;;;5087972;28;20046;-51
2022/11/01 10:12:26;;;;;;;18.27;3.33;;;16.30;99.90;;;;;;5090617;28;20050;-49
2022/11/01 10:15:35;;;;;;;16.92;3.35;;;15.80;99.90;;;;;;5090363;28;20055;-48
2022/11/01 10:18:26;;;;;;;22.02;3.25;;;15.60;99.90;;;;;;5097827;28;20032;-47
2022/11/01 10:20:52;;;;;;;18.40;2.80;;;16.30;99.90;;;;;;5110336;28;20160;-47
2022/11/01 10:23:28;;;;;;;19.60;3.10;;;15.10;99.90;;;;;;5089114;28;20039;-47
2022/11/01 10:25:54;;;;;;;23.33;3.25;;;15.90;99.90;;;;;;5089930;28;20028;-46
2022/11/01 10:28:32;;;;;;;22.67;3.88;;;14.60;99.90;;;;;;5089433;28;20032;-54
2022/11/01 10:31:02;;;;;;;22.63;3.28;;;14.40;99.90;;;;;;5094320;28;20028;-49
2022/11/01 10:33:39;;;;;;;30.90;4.78;;;14.30;99.90;;;;;;5094288;28;20024;-50
2022/11/01 10:36:20;;;;;;;28.02;3.70;;;14.40;99.90;;;;;;5093649;28;20058;-50
2022/11/01 10:38:49;;;;;;;18.67;2.80;;;14.40;99.90;;;;;;5094122;28;20103;-47
2022/11/01 10:41:23;;;;;;;;;;;14.40;99.90;;;;;;5094510;28;20031;-50
2022/11/01 10:43:53;;;;;;;25.00;3.10;;;14.30;99.90;;;;;;5094437;28;19904;-53
2022/11/01 10:46:27;;;;;;;26.23;4.25;;;14.30;99.90;;;;;;5093468;28;20024;-54
2022/11/01 10:49:16;;;;;;;20.15;3.85;;;14.30;99.90;;;;;;5094373;28;20040;-54
2022/11/01 10:51:43;;;;;;;21.17;3.40;;;14.40;99.90;;;;;;5081506;28;20167;-55
2022/11/01 10:54:16;;;;;;;24.52;3.38;;;14.70;99.90;;;;;;5092933;28;20032;-53
2022/11/01 10:56:46;;;;;;;18.92;3.65;;;14.80;99.90;;;;;;5093725;28;20099;-48
2022/11/01 10:59:17;;;;;;;14.57;1.80;;;14.80;99.90;;;;;;5094376;28;20028;-49
2022/11/01 11:01:45;;;;;;;9.90;1.63;;;15.00;99.90;;;;;;5093864;28;20024;-54
2022/11/01 11:04:14;;;;;;;15.52;2.47;;;13.30;99.90;;;;;;5094256;28;20039;-48
2022/11/01 11:06:41;;;;;;;17.70;2.42;;;13.00;99.90;;;;;;5088832;28;20059;-50
2022/11/01 11:09:23;;;;;;;16.42;3.00;;;13.10;99.90;;;;;;5090899;28;20088;-47
2022/11/01 11:11:50;;;;;;;24.20;4.03;;;13.30;99.90;;;;;;5079452;28;20017;-52
2022/11/01 11:14:18;;;;;;;33.83;3.95;;;16.40;99.90;;;;;;5092712;28;20024;-50
2022/11/01 11:16:47;;;;;;;20.90;3.33;;;16.10;99.90;;;;;;5094075;28;20054;-46
2022/11/01 11:19:19;;;;;;;24.70;3.30;;;17.50;99.90;;;;;;5113389;28;20035;-48
2022/11/01 11:21:48;;;;;;;18.58;3.22;;;17.60;99.90;;;;;;5114527;28;20061;-50
2022/11/01 11:24:23;;;;;;;19.83;4.37;;;18.90;99.90;;;;;;5114210;28;20022;-51
2022/11/01 11:26:54;;;;;;;18.10;2.85;;;17.20;99.90;;;;;;5094351;27;20027;-47
2022/11/01 11:29:48;;;;;;;18.52;2.40;;;16.50;99.90;;;;;;5094052;28;20036;-50
2022/11/01 11:32:27;;;;;;;16.52;2.72;;;14.30;99.90;;;;;;5093811;28;20028;-47
2022/11/01 11:35:19;;;;;;;19.30;3.50;;;14.80;99.90;;;;;;5082406;28;20037;-50
2022/11/01 11:37:58;;;;;;;19.25;2.78;;;16.10;99.90;;;;;;5092151;28;20028;-51
2022/11/01 11:40:26;;;;;;;22.55;2.92;;;11.50;99.90;;;;;;5092319;28;20131;-49
2022/11/01 11:42:54;;;;;;;15.57;2.65;;;14.20;99.90;;;;;;5092986;28;20017;-50
2022/11/01 11:45:28;;;;;;;19.65;3.00;;;11.00;99.90;;;;;;5084522;28;20059;-47
2022/11/01 11:47:56;;;;;;;15.45;3.35;;;14.10;99.90;;;;;;5077921;28;20039;-49
2022/11/01 11:50:31;;;;;;;18.88;3.33;;;13.90;99.90;;;;;;5086102;28;20028;-48
2022/11/01 11:52:58;;;;;;;24.38;3.30;;;13.90;99.90;;;;;;5092047;28;20063;-49
2022/11/01 11:55:38;;;;;;;14.20;2.05;;;14.70;99.90;;;;;;5090465;28;20028;-53
2022/11/01 11:58:13;;;;;;;12.73;2.47;;;15.10;99.90;;;;;;5091952;28;20114;-50
2022/11/01 12:00:48;;;;;;;16.05;2.67;;;14.00;99.90;;;;;;5092288;28;20020;-51
2022/11/01 12:03:16;;;;;;;20.17;2.53;;;15.30;99.90;;;;;;5091520;28;20407;-51
2022/11/01 12:06:07;;;;;;;18.15;2.55;;;14.20;99.90;;;;;;5092165;28;20103;-51
2022/11/01 12:08:50;;;;;;;21.40;2.63;;;14.50;99.90;;;;;;5091109;28;20039;-51
2022/11/01 12:11:17;;;;;;;20.30;3.38;;;14.00;99.90;;;;;;5091803;28;20017;-56
2022/11/01 12:13:57;;;;;;;17.70;3.22;;;13.90;99.90;;;;;;5091005;28;20024;-56
2022/11/01 12:16:23;;;;;;;20.35;2.20;;;14.00;99.90;;;;;;5091505;28;20028;-52
2022/11/01 12:18:51;;;;;;;13.30;3.15;;;13.70;99.90;;;;;;5088645;28;20056;-52
2022/11/01 12:21:23;;;;;;;12.18;1.77;;;11.10;99.90;;;;;;5087747;28;20029;-49
2022/11/01 12:23:53;;;;;;;21.95;3.22;;;13.30;99.90;;;;;;5076844;28;20048;-52
2022/11/01 12:26:22;;;;;;;16.77;2.60;;;11.10;99.90;;;;;;5086683;28;20057;-49
2022/11/01 12:28:57;;;;;;;25.52;3.17;;;14.00;99.90;;;;;;5090629;28;20381;-55
2022/11/01 12:31:23;;;;;;;23.60;3.10;;;13.40;99.90;;;;;;5075892;28;20020;-48
2022/11/01 12:34:02;;;;;;;20.52;3.40;;;13.90;99.90;;;;;;5091487;28;20028;-49
2022/11/01 12:36:43;;;;;;;24.15;2.92;;;13.60;99.90;;;;;;5090328;28;20527;-54
2022/11/01 12:39:49;;;;;;;25.52;5.40;;;10.90;99.90;;;;;;5092144;28;20039;-48
2022/11/01 12:42:31;;;;;;;35.90;3.65;;;14.20;99.90;;;;;;5056988;28;20047;-49
2022/11/01 12:45:32;;;;;;;44.58;5.70;;;14.40;99.90;;;;;;5089540;28;20023;-54
2022/11/01 12:48:12;;;;;;;26.65;4.18;;;14.40;99.90;;;;;;5085518;28;20062;-52
2022/11/01 12:50:51;;;;;;;33.30;5.57;;;14.40;99.90;;;;;;5091398;28;20095;-52
2022/11/01 12:53:25;;;;;;;26.38;4.55;;;14.60;99.90;;;;;;5090286;28;20035;-49
2022/11/01 12:55:52;;;;;;;25.65;4.63;;;14.40;99.90;;;;;;5091233;28;20031;-46
2022/11/01 12:58:20;;;;;;;23.13;3.90;;;14.40;99.90;;;;;;5091463;28;20408;-44
2022/11/01 13:01:05;;;;;;;21.35;3.33;;;12.70;99.90;;;;;;5090903;28;20047;-49
2022/11/01 13:03:48;;;;;;;20.33;2.10;;;13.90;99.90;;;;;;5091643;28;20071;-46
2022/11/01 13:06:45;;;;;;;15.95;2.88;;;13.80;99.90;;;;;;5090984;28;20024;-48
2022/11/01 13:09:17;;;;;;;23.65;3.38;;;13.80;99.90;;;;;;5090714;28;20466;-45
2022/11/01 13:11:54;;;;;;;19.05;3.03;;;15.80;99.90;;;;;;5085333;28;20024;-50
2022/11/01 13:14:29;;;;;;;23.13;3.47;;;13.80;99.90;;;;;;5077346;28;20396;-54
2022/11/01 13:17:07;;;;;;;20.50;3.28;;;11.00;99.90;;;;;;5077915;28;20086;-52
2022/11/01 13:20:08;;;;;;;23.73;4.20;;;14.40;99.90;;;;;;5111621;28;20059;-51
2022/11/01 13:22:51;;;;;;;32.45;3.95;;;14.80;99.90;;;;;;5106848;28;20142;-51
2022/11/01 13:25:23;;;;;;;23.30;3.58;;;13.80;99.90;;;;;;5111101;28;20062;-48
2022/11/01 13:28:30;;;;;;;39.50;6.18;;;13.90;99.90;;;;;;5093068;28;20036;-52